createdAt,value
2018-03-24T00:00:49.958Z,64.93
2018-03-24T00:03:53.244Z,66.13
2018-03-24T00:06:57.324Z,70.10
2018-03-24T00:10:00.670Z,77.63
2018-03-24T00:13:04.764Z,71.90
2018-03-24T00:16:08.104Z,70.63
2018-03-24T00:19:11.438Z,74.97
2018-03-24T00:22:15.447Z,60.33
2018-03-24T00:25:18.774Z,69.73
2018-03-24T00:28:22.846Z,72.67
2018-03-24T00:31:26.166Z,74.07
2018-03-24T00:34:29.507Z,71.60
2018-03-24T00:37:32.830Z,78.60
2018-03-24T00:40:36.163Z,67.73
2018-03-24T00:43:39.474Z,65.40
2018-03-24T00:46:43.566Z,68.67
2018-03-24T00:49:46.876Z,74.10
2018-03-24T00:52:50.199Z,73.43
2018-03-24T00:55:53.509Z,78.40
2018-03-24T00:58:56.839Z,74.57
2018-03-24T01:02:00.157Z,78.33
2018-03-24T01:05:03.508Z,75.20
2018-03-24T01:08:06.812Z,79.60
2018-03-24T01:11:10.143Z,74.13
2018-03-24T01:14:13.475Z,85.13
2018-03-24T01:17:16.786Z,90.10
2018-03-24T01:20:20.115Z,85.97
2018-03-24T01:23:23.430Z,90.63
2018-03-24T01:26:26.768Z,95.97
2018-03-24T01:29:30.092Z,96.03
2018-03-24T01:32:33.411Z,93.73
2018-03-24T01:35:36.748Z,91.43
2018-03-24T01:38:40.827Z,90.13
2018-03-24T01:41:44.170Z,86.63
2018-03-24T01:44:47.471Z,83.70
2018-03-24T01:47:50.799Z,97.33
2018-03-24T01:50:54.123Z,99.83
2018-03-24T01:53:57.455Z,98.87
2018-03-24T01:57:00.774Z,95.23
2018-03-24T02:00:04.115Z,106.83
2018-03-24T02:03:07.455Z,91.60
2018-03-24T02:06:10.754Z,89.93
2018-03-24T02:09:14.156Z,92.80
2018-03-24T02:12:17.479Z,103.93
2018-03-24T02:15:20.836Z,96.80
2018-03-24T02:18:24.154Z,103.40
2018-03-24T02:21:27.500Z,105.17
2018-03-24T02:24:30.840Z,108.13
2018-03-24T02:27:34.179Z,100.37
2018-03-24T02:30:37.486Z,95.90
2018-03-24T02:33:40.823Z,101.03
2018-03-24T02:36:44.165Z,103.90
2018-03-24T02:39:47.479Z,101.77
2018-03-24T02:42:50.831Z,112.93
2018-03-24T02:45:54.155Z,111.93
2018-03-24T02:48:57.475Z,100.93
2018-03-24T02:52:01.586Z,105.20
2018-03-24T02:55:04.912Z,110.30
2018-03-24T02:58:08.247Z,125.83
2018-03-24T03:01:11.558Z,116.53
2018-03-24T03:04:14.895Z,119.47
2018-03-24T03:07:18.215Z,113.13
2018-03-24T03:10:21.547Z,115.80
2018-03-24T03:13:24.880Z,111.27
2018-03-24T03:16:28.203Z,112.40
2018-03-24T03:19:31.557Z,113.90
2018-03-24T03:22:35.707Z,105.13
2018-03-24T03:25:38.990Z,110.60
2018-03-24T03:28:42.315Z,112.73
2018-03-24T03:31:47.897Z,107.50
2018-03-24T03:34:51.203Z,116.87
2018-03-24T03:37:54.542Z,109.97
2018-03-24T03:40:57.855Z,116.37
2018-03-24T03:44:01.196Z,114.63
2018-03-24T03:47:04.517Z,114.80
2018-03-24T03:50:08.618Z,119.20
2018-03-24T03:53:12.698Z,111.00
2018-03-24T03:56:16.028Z,117.90
2018-03-24T03:59:20.122Z,121.37
2018-03-24T04:02:23.434Z,117.60
2018-03-24T04:05:26.757Z,116.93
2018-03-24T04:08:30.087Z,118.33
2018-03-24T04:11:33.421Z,121.50
2018-03-24T04:14:36.739Z,125.13
2018-03-24T04:17:40.847Z,111.93
2018-03-24T04:20:44.932Z,120.03
2018-03-24T04:23:48.282Z,124.77
2018-03-24T04:26:51.644Z,119.93
2018-03-24T04:29:55.007Z,116.90
2018-03-24T04:32:58.376Z,112.50
2018-03-24T04:36:01.697Z,113.57
2018-03-24T04:39:10.758Z,121.50
2018-03-24T04:42:14.987Z,119.50
2018-03-24T04:45:18.308Z,123.10
2018-03-24T04:48:21.639Z,119.50
2018-03-24T04:51:24.952Z,110.43
2018-03-24T04:54:28.282Z,148.57
2018-03-24T04:57:32.351Z,140.73
2018-03-24T05:00:35.678Z,166.93
2018-03-24T05:03:38.988Z,147.43
2018-03-24T05:06:43.094Z,138.50
2018-03-24T05:09:46.415Z,149.60
2018-03-24T05:12:49.747Z,146.47
2018-03-24T05:15:53.073Z,153.03
2018-03-24T05:18:56.382Z,146.33
2018-03-24T05:21:59.723Z,151.17
2018-03-24T05:25:03.034Z,152.10
2018-03-24T05:28:06.363Z,155.80
2018-03-24T05:31:09.835Z,153.13
2018-03-24T05:34:13.176Z,145.97
2018-03-24T05:37:17.274Z,152.97
2018-03-24T05:40:20.607Z,155.40
2018-03-24T05:43:23.951Z,151.67
2018-03-24T05:46:27.279Z,155.00
2018-03-24T05:49:30.606Z,151.73
2018-03-24T05:52:33.915Z,154.47
2018-03-24T05:55:37.242Z,159.00
2018-03-24T05:58:40.547Z,148.40
2018-03-24T06:01:43.884Z,157.83
2018-03-24T06:04:47.203Z,167.27
2018-03-24T06:07:50.532Z,145.33
2018-03-24T06:10:53.846Z,158.37
2018-03-24T06:13:57.171Z,142.77
2018-03-24T06:17:00.490Z,142.30
2018-03-24T06:20:03.795Z,137.90
2018-03-24T06:23:07.451Z,137.07
2018-03-24T06:26:11.528Z,164.10
2018-03-24T06:29:14.851Z,144.30
2018-03-24T06:32:18.155Z,145.00
2018-03-24T06:35:21.480Z,149.53
2018-03-24T06:38:24.810Z,152.57
2018-03-24T06:41:28.165Z,142.43
2018-03-24T06:44:31.495Z,139.20
2018-03-24T06:47:34.932Z,136.73
2018-03-24T06:50:38.279Z,135.80
2018-03-24T06:53:41.582Z,127.37
2018-03-24T06:56:44.904Z,137.93
2018-03-24T06:59:48.206Z,135.03
2018-03-24T07:02:51.547Z,145.07
2018-03-24T07:05:54.876Z,131.60
2018-03-24T07:08:58.202Z,130.80
2018-03-24T07:12:01.535Z,122.80
2018-03-24T07:15:04.878Z,135.23
2018-03-24T07:18:08.215Z,136.80
2018-03-24T07:21:12.286Z,117.27
2018-03-24T07:24:15.611Z,117.20
2018-03-24T07:27:18.925Z,115.63
2018-03-24T07:30:23.014Z,108.80
2018-03-24T07:33:26.355Z,121.97
2018-03-24T07:36:29.663Z,100.83
2018-03-24T07:39:32.990Z,106.17
2018-03-24T07:42:36.304Z,100.50
2018-03-24T07:45:39.642Z,101.03
2018-03-24T07:48:42.940Z,97.70
2018-03-24T07:51:46.274Z,102.40
2018-03-24T07:54:49.578Z,103.60
2018-03-24T07:57:53.010Z,96.57
2018-03-24T08:00:57.082Z,87.00
2018-03-24T08:04:00.403Z,84.07
2018-03-24T08:07:03.717Z,89.17
2018-03-24T08:10:07.821Z,89.00
2018-03-24T08:13:11.138Z,75.67
2018-03-24T08:16:15.251Z,81.13
2018-03-24T08:19:19.326Z,84.70
2018-03-24T08:22:22.648Z,80.03
2018-03-24T08:25:26.732Z,73.87
2018-03-24T08:28:30.059Z,71.80
2018-03-24T08:31:34.147Z,76.20
2018-03-24T08:34:37.458Z,71.37
2018-03-24T08:37:40.791Z,70.37
2018-03-24T08:40:44.115Z,66.70
2018-03-24T08:43:47.434Z,69.67
2018-03-24T08:46:50.755Z,69.80
2018-03-24T08:49:54.827Z,68.13
2018-03-24T08:52:58.151Z,68.50
2018-03-24T08:56:01.460Z,72.53
2018-03-24T08:59:04.786Z,68.60
2018-03-24T09:02:08.092Z,66.10
2018-03-24T09:05:11.413Z,67.33
2018-03-24T09:08:14.723Z,70.57
2018-03-24T09:11:18.051Z,66.67
2018-03-24T09:14:22.160Z,77.23
2018-03-24T09:17:25.464Z,72.30
2018-03-24T09:20:28.787Z,65.93
2018-03-24T09:23:32.098Z,70.97
2018-03-24T09:26:35.431Z,67.87
2018-03-24T09:29:38.760Z,64.10
2018-03-24T09:32:42.847Z,63.63
2018-03-24T09:35:46.170Z,66.93
2018-03-24T09:38:50.244Z,64.17
2018-03-24T09:41:53.562Z,69.37
2018-03-24T09:44:56.879Z,71.97
2018-03-24T09:48:00.966Z,71.70
2018-03-24T09:51:04.279Z,71.20
2018-03-24T09:54:07.602Z,76.33
2018-03-24T09:57:10.907Z,74.67
2018-03-24T10:00:14.226Z,76.07
2018-03-24T10:03:17.550Z,76.23
2018-03-24T10:06:20.850Z,68.30
2018-03-24T10:09:24.171Z,72.57
2018-03-24T10:12:28.234Z,70.57
2018-03-24T10:15:31.559Z,70.90
2018-03-24T10:18:34.872Z,66.40
2018-03-24T10:25:32.206Z,63.97
2018-03-24T10:28:35.527Z,64.70
2018-03-24T10:31:38.852Z,67.13
2018-03-24T10:34:42.163Z,67.60
2018-03-24T10:37:50.947Z,67.00
2018-03-24T10:40:54.266Z,60.60
2018-03-24T10:43:58.362Z,68.23
2018-03-24T10:47:01.676Z,63.97
2018-03-24T10:50:05.766Z,57.37
2018-03-24T10:53:09.095Z,62.23
2018-03-24T10:56:12.406Z,66.10
2018-03-24T10:59:16.276Z,56.43
2018-03-24T11:02:20.356Z,63.50
2018-03-24T11:05:26.278Z,60.37
2018-03-24T11:08:30.459Z,63.13
2018-03-24T11:11:33.788Z,63.87
2018-03-24T11:14:37.091Z,64.20
2018-03-24T11:17:40.409Z,63.27
2018-03-24T11:20:43.796Z,67.90
2018-03-24T11:23:47.124Z,64.30
2018-03-24T11:26:50.452Z,68.50
2018-03-24T11:29:54.535Z,62.57
2018-03-24T11:32:57.919Z,69.27
2018-03-24T11:36:01.220Z,70.73
2018-03-24T11:39:04.537Z,64.50
2018-03-24T11:42:20.841Z,66.37
2018-03-24T11:45:25.080Z,66.77
2018-03-24T11:48:29.301Z,75.80
2018-03-24T11:51:32.640Z,70.40
2018-03-24T11:54:45.970Z,67.00
2018-03-24T11:57:50.480Z,65.47
2018-03-24T12:00:53.831Z,71.83
2018-03-24T12:03:57.169Z,79.20
2018-03-24T12:07:00.517Z,69.37
2018-03-24T12:10:03.843Z,71.47
2018-03-24T12:13:07.540Z,72.53
2018-03-24T12:16:11.611Z,70.73
2018-03-24T12:19:14.923Z,70.93
2018-03-24T12:22:18.222Z,68.80
2018-03-24T12:25:21.552Z,70.83
2018-03-24T12:28:25.670Z,82.83
2018-03-24T12:31:28.959Z,75.03
2018-03-24T12:34:32.290Z,67.63
2018-03-24T12:37:35.586Z,103.27
2018-03-24T12:40:38.894Z,69.03
2018-03-24T12:43:42.215Z,70.47
2018-03-24T12:46:45.543Z,89.57
2018-03-24T12:49:49.610Z,73.17
2018-03-24T12:52:52.951Z,79.23
2018-03-24T12:55:57.034Z,69.40
2018-03-24T12:59:00.359Z,83.40
2018-03-24T13:02:04.462Z,73.87
2018-03-24T13:05:07.778Z,70.23
2018-03-24T13:08:11.880Z,67.80
2018-03-24T13:11:15.187Z,84.43
2018-03-24T13:14:19.276Z,75.57
2018-03-24T13:17:22.584Z,73.77
2018-03-24T13:20:25.911Z,70.57
2018-03-24T13:23:29.231Z,86.70
2018-03-24T13:26:32.550Z,94.30
2018-03-24T13:29:35.865Z,70.27
2018-03-24T13:32:39.182Z,80.43
2018-03-24T13:35:43.278Z,77.27
2018-03-24T13:38:46.612Z,67.07
2018-03-24T13:41:49.948Z,74.10
2018-03-24T13:44:53.256Z,72.23
2018-03-24T13:47:56.603Z,76.27
2018-03-24T13:50:59.920Z,68.53
2018-03-24T13:54:03.259Z,74.47
2018-03-24T13:57:07.343Z,75.87
2018-03-24T14:00:10.663Z,69.93
2018-03-24T14:03:13.964Z,63.33
2018-03-24T14:06:17.287Z,64.60
2018-03-24T14:09:20.596Z,70.53
2018-03-24T14:12:23.924Z,65.67
2018-03-24T14:15:27.250Z,66.13
2018-03-24T14:18:30.571Z,62.03
2018-03-24T14:21:34.648Z,63.83
2018-03-24T14:24:37.963Z,59.83
2018-03-24T14:27:41.263Z,66.57
2018-03-24T14:30:44.979Z,59.23
2018-03-24T14:33:49.067Z,72.60
2018-03-24T14:36:52.388Z,61.87
2018-03-24T14:39:56.496Z,59.37
2018-03-24T14:42:59.831Z,68.17
2018-03-24T14:46:03.907Z,66.43
2018-03-24T14:49:07.279Z,68.07
2018-03-24T14:52:10.638Z,66.10
2018-03-24T14:55:13.965Z,70.97
2018-03-24T14:58:17.341Z,72.33
2018-03-24T15:01:20.680Z,97.73
2018-03-24T15:04:24.019Z,64.93
2018-03-24T15:07:27.391Z,74.23
2018-03-24T15:10:30.724Z,73.27
2018-03-24T15:13:34.088Z,74.17
2018-03-24T15:16:38.228Z,76.43
2018-03-24T15:19:41.585Z,79.07
2018-03-24T15:22:44.931Z,73.57
2018-03-24T15:25:48.263Z,98.13
2018-03-24T15:29:09.315Z,86.10
2018-03-24T15:32:31.230Z,80.30
2018-03-24T15:35:34.598Z,78.40
2018-03-24T15:38:37.904Z,72.97
2018-03-24T15:41:41.223Z,78.47
2018-03-24T15:44:44.524Z,77.73
2018-03-24T15:47:48.628Z,79.83
2018-03-24T15:50:51.938Z,74.67
2018-03-24T15:53:56.043Z,78.47
2018-03-24T15:56:59.337Z,72.97
2018-03-24T16:00:02.655Z,74.43
2018-03-24T16:03:06.713Z,76.47
2018-03-24T16:06:10.037Z,80.97
2018-03-24T16:09:13.334Z,72.43
2018-03-24T16:12:16.650Z,71.20
2018-03-24T16:15:20.791Z,71.60
2018-03-24T16:18:24.047Z,74.17
2018-03-24T16:21:27.386Z,69.83
2018-03-24T16:24:30.693Z,74.50
2018-03-24T16:27:34.020Z,70.40
2018-03-24T16:30:37.327Z,70.77
2018-03-24T16:33:40.643Z,69.33
2018-03-24T16:36:44.760Z,68.97
2018-03-24T16:39:48.879Z,67.10
2018-03-24T16:42:53.164Z,72.63
2018-03-24T16:45:56.491Z,72.90
2018-03-24T16:49:00.599Z,74.87
2018-03-24T16:52:04.688Z,72.00
2018-03-24T16:55:08.015Z,74.17
2018-03-24T16:58:12.186Z,75.13
2018-03-24T17:01:15.534Z,72.30
2018-03-24T17:04:19.643Z,69.77
2018-03-24T17:07:23.723Z,74.87
2018-03-24T17:10:27.032Z,74.53
2018-03-24T17:13:30.398Z,72.83
2018-03-24T17:16:34.439Z,74.70
2018-03-24T17:19:37.776Z,73.43
2018-03-24T17:22:46.450Z,75.83
2018-03-24T17:25:49.774Z,73.13
2018-03-24T17:28:53.875Z,74.97
2018-03-24T17:31:58.099Z,72.53
2018-03-24T17:35:01.474Z,74.00
2018-03-24T17:38:04.767Z,77.80
2018-03-24T17:41:08.101Z,78.83
2018-03-24T17:44:11.402Z,79.77
2018-03-24T17:47:15.482Z,78.10
2018-03-24T17:50:18.823Z,79.00
2018-03-24T17:53:22.910Z,75.13
2018-03-24T17:56:26.308Z,77.37
2018-03-24T17:59:30.460Z,72.57
2018-03-24T18:02:33.758Z,82.93
2018-03-24T18:05:37.123Z,77.00
2018-03-24T18:08:40.418Z,79.17
2018-03-24T18:11:43.760Z,77.77
2018-03-24T18:14:47.128Z,78.63
2018-03-24T18:17:51.211Z,79.07
2018-03-24T18:20:54.559Z,80.60
2018-03-24T18:23:57.918Z,78.43
2018-03-24T18:27:02.053Z,84.80
2018-03-24T18:30:06.156Z,80.63
2018-03-24T18:33:09.458Z,81.63
2018-03-24T18:36:13.584Z,88.80
2018-03-24T18:39:16.928Z,87.20
2018-03-24T18:42:20.235Z,80.40
2018-03-24T18:45:23.546Z,78.60
2018-03-24T18:48:26.859Z,80.83
2018-03-24T18:51:30.180Z,75.13
2018-03-24T18:54:33.487Z,67.10
2018-03-24T18:57:36.807Z,69.97
2018-03-24T19:00:40.127Z,63.73
2018-03-24T19:03:43.450Z,123.33
2018-03-24T19:06:47.523Z,74.30
2018-03-24T19:09:50.843Z,90.63
2018-03-24T19:12:54.172Z,137.63
2018-03-24T19:15:57.485Z,432.40
2018-03-24T19:19:00.837Z,289.53
2018-03-24T19:22:04.148Z,288.10
2018-03-24T19:25:08.284Z,175.93
2018-03-24T19:28:11.547Z,91.97
2018-03-24T19:31:14.887Z,83.03
2018-03-24T19:34:18.190Z,78.77
2018-03-24T19:37:21.511Z,76.77
2018-03-24T19:40:24.826Z,77.50
2018-03-24T19:43:28.151Z,98.47
2018-03-24T19:46:32.218Z,113.37
2018-03-24T19:49:35.538Z,77.83
2018-03-24T19:52:38.871Z,78.80
2018-03-24T19:55:42.202Z,98.47
2018-03-24T19:58:45.511Z,371.20
2018-03-24T20:01:48.852Z,137.87
2018-03-24T20:04:52.924Z,77.13
2018-03-24T20:07:56.243Z,77.50
2018-03-24T20:10:59.541Z,76.17
2018-03-24T20:14:03.626Z,78.73
2018-03-24T20:17:06.934Z,86.93
2018-03-24T20:20:10.262Z,89.47
2018-03-24T20:23:14.335Z,88.97
2018-03-24T20:26:17.654Z,86.53
2018-03-24T20:29:21.744Z,97.27
2018-03-24T20:32:25.051Z,93.17
2018-03-24T20:35:28.370Z,87.10
2018-03-24T20:38:32.459Z,91.03
2018-03-24T20:41:35.779Z,88.10
2018-03-24T20:44:39.855Z,90.20
2018-03-24T20:47:43.187Z,96.17
2018-03-24T20:50:47.272Z,93.80
2018-03-24T20:53:50.595Z,93.23
2018-03-24T20:56:53.895Z,92.00
2018-03-24T20:59:58.019Z,105.30
2018-03-24T21:03:02.115Z,100.90
2018-03-24T21:06:05.438Z,86.43
2018-03-24T21:09:08.747Z,87.00
2018-03-24T21:12:12.072Z,93.23
2018-03-24T21:15:15.375Z,122.73
2018-03-24T21:18:18.715Z,112.03
2018-03-24T21:21:22.788Z,89.97
2018-03-24T21:24:26.163Z,104.30
2018-03-24T21:27:30.214Z,87.57
2018-03-24T21:30:33.531Z,84.20
2018-03-24T21:33:36.853Z,85.60
2018-03-24T21:36:40.166Z,83.13
2018-03-24T21:39:43.472Z,160.60
2018-03-24T21:42:46.798Z,119.63
2018-03-24T21:45:50.137Z,112.07
2018-03-24T21:48:53.434Z,113.30
2018-03-24T21:51:56.767Z,93.80
2018-03-24T21:55:00.066Z,87.50
2018-03-24T21:58:03.379Z,83.83
2018-03-24T22:01:06.684Z,86.83
2018-03-24T22:04:10.011Z,83.97
2018-03-24T22:07:13.314Z,84.27
2018-03-24T22:10:16.630Z,87.43
2018-03-24T22:13:19.941Z,79.87
2018-03-24T22:16:23.265Z,89.40
2018-03-24T22:19:26.586Z,87.53
2018-03-24T22:22:30.655Z,89.37
2018-03-24T22:25:33.970Z,88.73
2018-03-24T22:28:37.279Z,85.17
2018-03-24T22:31:40.605Z,92.83
2018-03-24T22:34:43.938Z,85.30
2018-03-24T22:37:47.239Z,80.30
2018-03-24T22:40:50.554Z,83.90
2018-03-24T22:43:53.902Z,87.03
2018-03-24T22:46:57.212Z,84.47
2018-03-24T22:50:01.435Z,87.80
2018-03-24T22:53:04.750Z,88.07
2018-03-24T22:56:08.056Z,162.63
2018-03-24T22:59:11.375Z,92.77
2018-03-24T23:02:15.519Z,89.77
2018-03-24T23:05:18.792Z,82.83
2018-03-24T23:08:22.861Z,77.43
2018-03-24T23:11:26.178Z,88.43
2018-03-24T23:14:29.526Z,83.87
2018-03-24T23:17:32.850Z,88.13
2018-03-24T23:20:36.151Z,90.07
2018-03-24T23:23:39.476Z,89.03
2018-03-24T23:26:43.545Z,82.60
2018-03-24T23:29:46.877Z,66.43
2018-03-24T23:32:50.191Z,85.50
2018-03-24T23:35:53.521Z,84.23
2018-03-24T23:38:56.818Z,88.00
2018-03-24T23:42:00.134Z,84.13
2018-03-24T23:45:03.442Z,91.23
2018-03-24T23:48:06.766Z,83.47
2018-03-24T23:51:10.830Z,88.40
2018-03-24T23:54:14.138Z,79.67
2018-03-24T23:57:17.478Z,79.77
